createdAt,value
2017-09-11T00:01:12.973Z,16.27
2017-09-11T00:03:39.449Z,18.97
2017-09-11T00:06:05.888Z,18.50
2017-09-11T00:08:32.422Z,16.37
2017-09-11T00:10:59.580Z,15.67
2017-09-11T00:13:26.115Z,17.03
2017-09-11T00:15:52.547Z,20.80
2017-09-11T00:18:18.985Z,25.83
2017-09-11T00:20:45.416Z,16.77
2017-09-11T00:23:11.828Z,16.10
2017-09-11T00:25:38.270Z,20.30
2017-09-11T00:28:05.443Z,18.03
2017-09-11T00:30:31.874Z,16.47
2017-09-11T00:32:58.501Z,18.57
2017-09-11T00:35:24.942Z,16.60
2017-09-11T00:37:51.483Z,19.00
2017-09-11T00:40:17.918Z,21.37
2017-09-11T00:42:44.351Z,18.27
2017-09-11T00:45:11.604Z,17.50
2017-09-11T00:47:38.145Z,18.20
2017-09-11T00:50:04.581Z,16.60
2017-09-11T00:52:30.968Z,17.37
2017-09-11T00:54:57.451Z,21.03
2017-09-11T00:57:23.885Z,16.80
2017-09-11T00:59:50.320Z,17.80
2017-09-11T01:02:17.459Z,17.70
2017-09-11T01:04:44.009Z,18.80
2017-09-11T01:07:10.444Z,14.80
2017-09-11T01:09:36.878Z,17.53
2017-09-11T01:12:03.316Z,15.30
2017-09-11T01:14:29.748Z,18.33
2017-09-11T01:16:56.166Z,19.17
2017-09-11T01:19:23.432Z,13.70
2017-09-11T01:21:49.872Z,14.50
2017-09-11T01:24:16.372Z,15.20
2017-09-11T01:26:42.844Z,19.93
2017-09-11T01:29:09.287Z,20.40
2017-09-11T01:31:35.642Z,16.90
2017-09-11T01:34:02.149Z,15.50
2017-09-11T01:36:29.302Z,26.77
2017-09-11T01:38:55.736Z,33.77
2017-09-11T01:41:22.171Z,16.80
2017-09-11T01:43:48.610Z,14.37
2017-09-11T01:46:15.026Z,18.07
2017-09-11T01:48:41.476Z,18.73
2017-09-11T01:51:07.911Z,20.60
2017-09-11T01:53:35.164Z,18.80
2017-09-11T01:56:01.599Z,17.27
2017-09-11T01:58:28.039Z,16.10
2017-09-11T02:00:54.469Z,17.30
2017-09-11T02:03:20.908Z,21.43
2017-09-11T02:05:47.338Z,18.00
2017-09-11T02:08:13.774Z,21.50
2017-09-11T02:10:40.926Z,18.00
2017-09-11T02:13:07.361Z,21.90
2017-09-11T02:15:33.794Z,24.57
2017-09-11T02:18:00.333Z,17.00
2017-09-11T02:20:26.767Z,17.37
2017-09-11T02:22:53.202Z,20.57
2017-09-11T02:25:19.638Z,19.50
2017-09-11T02:27:46.895Z,14.90
2017-09-11T02:30:13.327Z,20.57
2017-09-11T02:32:39.762Z,19.77
2017-09-11T02:35:06.197Z,33.57
2017-09-11T02:37:32.631Z,19.43
2017-09-11T02:39:59.067Z,21.80
2017-09-11T02:42:25.500Z,16.50
2017-09-11T02:44:52.653Z,16.23
2017-09-11T02:47:19.087Z,14.83
2017-09-11T02:49:45.524Z,18.90
2017-09-11T02:52:11.958Z,14.70
2017-09-11T02:54:38.393Z,18.10
2017-09-11T02:57:04.827Z,15.77
2017-09-11T02:59:31.262Z,17.13
2017-09-11T03:01:58.516Z,13.77
2017-09-11T03:04:24.910Z,16.50
2017-09-11T03:06:51.283Z,14.87
2017-09-11T03:09:17.717Z,22.00
2017-09-11T03:11:44.156Z,20.63
2017-09-11T03:14:10.589Z,16.53
2017-09-11T03:16:37.003Z,19.60
2017-09-11T03:19:04.174Z,17.10
2017-09-11T03:21:30.610Z,18.00
2017-09-11T03:23:57.045Z,17.20
2017-09-11T03:26:23.501Z,17.70
2017-09-11T03:28:50.016Z,20.77
2017-09-11T03:31:16.408Z,14.20
2017-09-11T03:33:42.877Z,15.67
2017-09-11T03:36:10.038Z,16.30
2017-09-11T03:38:36.473Z,19.13
2017-09-11T03:41:02.909Z,16.63
2017-09-11T03:43:29.346Z,15.73
2017-09-11T03:45:55.780Z,14.20
2017-09-11T03:48:22.215Z,14.20
2017-09-11T03:50:48.649Z,17.63
2017-09-11T03:53:15.797Z,16.17
2017-09-11T03:55:42.337Z,18.53
2017-09-11T03:58:08.875Z,22.57
2017-09-11T04:00:35.295Z,19.57
2017-09-11T04:03:01.734Z,18.80
2017-09-11T04:05:28.178Z,25.20
2017-09-11T04:07:54.614Z,20.47
2017-09-11T04:10:21.766Z,20.83
2017-09-11T04:12:48.202Z,18.13
2017-09-11T04:15:14.634Z,22.13
2017-09-11T04:17:41.071Z,19.60
2017-09-11T04:20:07.504Z,19.57
2017-09-11T04:22:33.938Z,22.30
2017-09-11T04:25:00.375Z,25.43
2017-09-11T04:27:27.630Z,29.40
2017-09-11T04:29:54.063Z,25.70
2017-09-11T04:32:20.504Z,24.50
2017-09-11T04:34:46.935Z,24.10
2017-09-11T04:37:13.366Z,20.83
2017-09-11T04:39:39.805Z,23.33
2017-09-11T04:42:06.344Z,29.93
2017-09-11T04:44:33.493Z,29.33
2017-09-11T04:46:59.928Z,25.53
2017-09-11T04:49:26.345Z,24.53
2017-09-11T04:51:52.789Z,32.40
2017-09-11T04:54:19.232Z,27.70
2017-09-11T04:56:45.666Z,29.10
2017-09-11T04:59:12.104Z,20.23
2017-09-11T05:01:39.356Z,27.53
2017-09-11T05:04:05.792Z,29.13
2017-09-11T05:06:32.324Z,26.97
2017-09-11T05:08:58.760Z,25.43
2017-09-11T05:11:25.197Z,27.53
2017-09-11T05:13:51.632Z,29.40
2017-09-11T05:16:18.069Z,28.40
2017-09-11T05:18:45.321Z,31.13
2017-09-11T05:21:11.756Z,30.00
2017-09-11T05:23:38.191Z,27.40
2017-09-11T05:26:04.628Z,30.13
2017-09-11T05:28:31.061Z,21.50
2017-09-11T05:30:57.499Z,34.43
2017-09-11T05:33:23.931Z,38.73
2017-09-11T05:35:51.035Z,23.83
2017-09-11T05:38:17.519Z,33.23
2017-09-11T05:40:44.055Z,32.33
2017-09-11T05:43:10.413Z,30.83
2017-09-11T05:45:36.826Z,28.37
2017-09-11T05:48:03.256Z,33.27
2017-09-11T05:50:29.694Z,30.73
2017-09-11T05:52:56.843Z,37.43
2017-09-11T05:55:23.278Z,35.13
2017-09-11T05:57:49.713Z,23.87
2017-09-11T06:00:16.148Z,37.73
2017-09-11T06:07:29.422Z,32.10
2017-09-11T06:37:41.444Z,23.03
2017-09-11T06:40:07.894Z,23.57
2017-09-11T06:42:34.480Z,43.40
2017-09-11T06:45:01.478Z,16.83
2017-09-11T06:47:28.036Z,21.57
2017-09-11T06:49:54.448Z,27.80
2017-09-11T06:52:20.993Z,26.40
2017-09-11T06:54:47.384Z,23.90
2017-09-11T06:57:13.808Z,23.50
2017-09-11T06:59:40.549Z,38.47
2017-09-11T07:02:06.985Z,25.60
2017-09-11T07:04:33.788Z,26.73
2017-09-11T07:07:00.856Z,33.03
2017-09-11T07:09:27.317Z,22.50
2017-09-11T07:11:53.795Z,26.77
2017-09-11T07:14:20.588Z,26.17
2017-09-11T07:16:47.396Z,27.83
2017-09-11T07:19:13.869Z,20.00
2017-09-11T07:21:40.586Z,20.03
2017-09-11T07:24:07.044Z,25.30
2017-09-11T07:26:33.592Z,21.90
2017-09-11T07:29:00.324Z,28.60
2017-09-11T07:31:26.758Z,26.00
2017-09-11T07:33:53.141Z,23.40
2017-09-11T07:36:19.749Z,21.50
2017-09-11T07:38:46.267Z,31.97
2017-09-11T07:41:12.703Z,26.03
2017-09-11T07:43:39.397Z,22.50
2017-09-11T07:46:05.883Z,30.87
2017-09-11T07:48:32.436Z,29.10
2017-09-11T07:50:59.825Z,34.73
2017-09-11T07:53:26.292Z,25.57
2017-09-11T07:55:52.743Z,25.73
2017-09-11T07:58:20.304Z,29.20
2017-09-11T08:00:46.841Z,28.20
2017-09-11T08:03:13.276Z,32.60
2017-09-11T08:05:39.917Z,28.13
2017-09-11T08:08:06.452Z,23.73
2017-09-11T08:10:32.895Z,20.90
2017-09-11T08:12:59.412Z,26.97
2017-09-11T08:15:26.270Z,31.57
2017-09-11T08:17:52.807Z,21.30
2017-09-11T08:20:19.244Z,37.93
2017-09-11T08:22:45.782Z,17.63
2017-09-11T08:25:12.216Z,36.50
2017-09-11T08:27:38.855Z,21.20
2017-09-11T08:30:05.550Z,25.20
2017-09-11T08:32:32.045Z,21.27
2017-09-11T08:52:38.588Z,17.93
2017-09-11T08:55:06.255Z,19.97
2017-09-11T08:57:33.748Z,17.00
2017-09-11T09:00:00.230Z,22.27
2017-09-11T09:02:26.813Z,14.90
2017-09-11T09:04:53.373Z,20.63
2017-09-11T09:07:19.882Z,26.70
2017-09-11T09:09:46.238Z,13.87
2017-09-11T09:12:12.842Z,19.17
2017-09-11T09:14:39.369Z,21.87
2017-09-11T09:17:05.908Z,14.87
2017-09-11T09:19:32.648Z,20.50
2017-09-11T09:22:00.110Z,23.43
2017-09-11T09:24:26.644Z,20.80
2017-09-11T09:26:53.193Z,20.43
2017-09-11T09:29:19.652Z,20.27
2017-09-11T09:31:46.145Z,18.80
2017-09-11T09:34:12.558Z,20.80
2017-09-11T09:36:39.526Z,25.00
2017-09-11T09:39:05.970Z,19.70
2017-09-11T09:41:32.365Z,15.70
2017-09-11T09:43:58.786Z,21.67
2017-09-11T09:46:25.252Z,30.77
2017-09-11T09:48:51.709Z,24.53
2017-09-11T09:51:18.084Z,23.97
2017-09-11T09:57:11.550Z,27.57
2017-09-11T10:09:43.387Z,31.37
2017-09-11T10:12:10.437Z,24.33
2017-09-11T10:17:08.620Z,23.80
2017-09-11T10:19:35.072Z,25.10
2017-09-11T10:22:01.482Z,27.03
2017-09-11T10:24:27.887Z,31.60
2017-09-11T10:26:55.292Z,25.73
2017-09-11T10:29:21.728Z,32.23
2017-09-11T10:31:48.163Z,26.70
2017-09-11T10:34:14.616Z,19.63
2017-09-11T10:36:41.133Z,37.00
2017-09-11T10:39:07.568Z,28.47
2017-09-11T10:41:34.004Z,25.00
2017-09-11T10:44:00.441Z,47.00
2017-09-11T10:46:26.822Z,22.13
2017-09-11T10:48:53.410Z,27.03
2017-09-11T10:51:19.814Z,31.77
2017-09-11T10:53:46.281Z,31.70
2017-09-11T10:56:12.718Z,29.10
2017-09-11T10:58:39.150Z,32.33
2017-09-11T11:01:05.585Z,18.60
2017-09-11T11:03:32.020Z,32.57
2017-09-11T11:05:58.558Z,20.87
2017-09-11T11:08:24.991Z,32.97
2017-09-11T11:10:51.427Z,25.17
2017-09-11T11:13:17.862Z,22.80
2017-09-11T11:15:44.661Z,20.67
2017-09-11T11:18:11.122Z,31.13
2017-09-11T11:20:37.575Z,26.00
2017-09-11T11:23:04.010Z,24.00
2017-09-11T11:25:30.446Z,29.87
2017-09-11T11:27:56.983Z,17.93
2017-09-11T11:30:23.725Z,17.97
2017-09-11T11:32:50.265Z,20.83
2017-09-11T11:35:16.847Z,21.27
2017-09-11T11:37:43.295Z,17.20
2017-09-11T11:40:09.775Z,20.60
2017-09-11T11:42:36.210Z,19.93
2017-09-11T11:45:02.642Z,20.50
2017-09-11T11:47:29.251Z,28.90
2017-09-11T11:49:56.174Z,18.63
2017-09-11T11:52:22.663Z,13.10
2017-09-11T11:54:49.360Z,19.60
2017-09-11T11:57:16.299Z,17.37
2017-09-11T11:59:42.787Z,16.00
2017-09-11T12:02:09.324Z,23.97
2017-09-11T12:04:36.066Z,20.37
2017-09-11T12:07:02.604Z,18.53
2017-09-11T12:09:29.038Z,13.80
2017-09-11T12:11:55.479Z,13.00
2017-09-11T12:14:22.237Z,13.33
2017-09-11T12:16:48.652Z,20.77
2017-09-11T12:19:15.087Z,15.67
2017-09-11T12:21:41.930Z,22.60
2017-09-11T12:24:08.365Z,16.63
2017-09-11T12:26:34.903Z,10.63
2017-09-11T12:29:01.627Z,11.80
2017-09-11T12:31:27.975Z,16.43
2017-09-11T12:33:54.415Z,14.30
2017-09-11T12:36:20.807Z,12.40
2017-09-11T12:38:47.383Z,12.50
2017-09-11T12:41:13.818Z,10.23
2017-09-11T12:43:40.255Z,13.23
2017-09-11T12:46:06.791Z,15.98
2017-09-11T12:48:33.274Z,10.85
2017-09-11T12:50:59.867Z,10.13
2017-09-11T12:53:26.710Z,10.20
2017-09-11T12:55:53.247Z,6.78
2017-09-11T12:58:19.780Z,10.65
2017-09-11T13:00:46.319Z,7.72
2017-09-11T13:03:12.753Z,7.50
2017-09-11T13:05:39.188Z,8.88
2017-09-11T13:08:05.931Z,9.77
2017-09-11T13:10:32.271Z,7.37
2017-09-11T13:12:59.004Z,6.25
2017-09-11T13:15:25.710Z,6.07
2017-09-11T13:17:52.202Z,12.13
2017-09-11T13:20:18.923Z,8.57
2017-09-11T13:22:45.302Z,5.87
2017-09-11T13:25:12.072Z,5.90
2017-09-11T13:27:38.847Z,7.32
2017-09-11T13:30:05.383Z,5.65
2017-09-11T13:32:32.042Z,6.07
2017-09-11T13:34:58.868Z,6.60
2017-09-11T13:37:25.388Z,6.07
2017-09-11T13:39:51.870Z,6.10
2017-09-11T13:42:18.274Z,6.30
2017-09-11T13:44:44.665Z,12.23
2017-09-11T13:47:11.186Z,6.45
2017-09-11T13:49:37.679Z,6.62
2017-09-11T13:52:04.113Z,6.00
2017-09-11T13:54:30.753Z,9.70
2017-09-11T13:56:57.188Z,6.15
2017-09-11T13:59:23.725Z,7.90
2017-09-11T14:01:50.572Z,6.60
2017-09-11T14:04:17.005Z,6.15
2017-09-11T14:06:43.440Z,6.80
2017-09-11T14:09:10.079Z,6.22
2017-09-11T14:11:36.514Z,6.97
2017-09-11T14:14:02.972Z,6.78
2017-09-11T14:16:29.486Z,6.10
2017-09-11T14:18:56.230Z,7.75
2017-09-11T14:21:24.023Z,7.63
2017-09-11T14:23:51.101Z,8.20
2017-09-11T14:26:18.081Z,10.47
2017-09-11T14:28:44.631Z,9.00
2017-09-11T14:31:11.010Z,12.50
2017-09-11T14:36:13.753Z,13.83
2017-09-11T14:38:42.954Z,11.97
2017-09-11T14:41:12.025Z,15.30
2017-09-11T14:43:38.396Z,11.73
2017-09-11T14:46:06.458Z,13.20
2017-09-11T14:48:33.214Z,18.10
2017-09-11T14:51:00.555Z,18.33
2017-09-11T14:53:26.950Z,15.63
2017-09-11T14:55:53.385Z,12.70
2017-09-11T14:58:19.827Z,15.17
2017-09-11T15:00:46.309Z,15.63
2017-09-11T15:03:12.743Z,13.43
2017-09-11T15:05:39.793Z,18.20
2017-09-11T15:08:06.228Z,21.50
2017-09-11T15:10:32.663Z,14.87
2017-09-11T15:12:59.076Z,21.13
2017-09-11T15:15:25.486Z,14.63
2017-09-11T15:17:51.968Z,16.50
2017-09-11T15:20:18.504Z,17.90
2017-09-11T15:22:44.940Z,17.97
2017-09-11T15:25:11.375Z,15.40
2017-09-11T15:27:37.812Z,17.40
2017-09-11T15:30:04.199Z,15.03
2017-09-11T15:32:30.680Z,21.30
2017-09-11T15:34:57.115Z,17.83
2017-09-11T15:37:23.548Z,22.03
2017-09-11T15:39:49.984Z,17.43
2017-09-11T15:42:16.418Z,19.07
2017-09-11T15:44:42.803Z,21.80
2017-09-11T15:47:09.287Z,18.40
2017-09-11T15:49:35.722Z,17.93
2017-09-11T15:52:02.161Z,17.27
2017-09-11T15:54:28.592Z,17.67
2017-09-11T15:56:55.028Z,15.90
2017-09-11T15:59:21.975Z,20.13
2017-09-11T16:01:48.410Z,14.70
2017-09-11T16:04:14.845Z,19.40
2017-09-11T16:06:41.997Z,14.90
2017-09-11T16:09:08.433Z,19.30
2017-09-11T16:11:34.868Z,17.13
2017-09-11T16:14:01.303Z,17.33
2017-09-11T16:16:27.737Z,19.97
2017-09-11T16:18:54.151Z,18.13
2017-09-11T16:21:21.445Z,18.63
2017-09-11T16:23:47.880Z,20.23
2017-09-11T16:26:14.297Z,27.67
2017-09-11T16:28:40.836Z,17.10
2017-09-11T16:31:07.268Z,22.43
2017-09-11T16:33:33.805Z,21.03
2017-09-11T16:36:00.242Z,23.50
2017-09-11T16:38:26.675Z,22.33
2017-09-11T16:40:53.110Z,27.83
2017-09-11T16:43:19.545Z,28.13
2017-09-11T16:45:45.980Z,19.30
2017-09-11T16:48:12.415Z,32.97
2017-09-11T16:50:38.849Z,15.57
2017-09-11T16:53:05.387Z,17.97
2017-09-11T16:55:31.822Z,22.63
2017-09-11T16:57:58.206Z,18.67
2017-09-11T17:00:24.590Z,17.33
2017-09-11T17:02:51.026Z,18.17
2017-09-11T17:05:17.411Z,23.00
2017-09-11T17:07:43.894Z,16.83
2017-09-11T17:10:10.329Z,19.60
2017-09-11T17:12:36.764Z,19.00
2017-09-11T17:15:03.200Z,18.63
2017-09-11T17:17:29.585Z,18.10
2017-09-11T17:19:56.077Z,18.93
2017-09-11T17:22:23.176Z,17.40
2017-09-11T17:24:49.681Z,14.70
2017-09-11T17:27:16.094Z,22.03
2017-09-11T17:29:42.937Z,23.00
2017-09-11T17:32:09.371Z,18.73
2017-09-11T17:34:35.806Z,21.77
2017-09-11T17:37:02.188Z,15.10
2017-09-11T17:39:28.676Z,21.03
2017-09-11T17:41:55.112Z,19.27
2017-09-11T17:44:21.500Z,17.50
2017-09-11T17:46:47.926Z,16.37
2017-09-11T17:49:14.385Z,20.80
2017-09-11T17:51:40.747Z,19.37
2017-09-11T17:54:07.184Z,21.20
2017-09-11T17:56:33.616Z,17.50
2017-09-11T17:59:00.051Z,18.07
2017-09-11T18:01:26.488Z,17.70
2017-09-11T18:03:52.920Z,18.60
2017-09-11T18:06:19.358Z,16.93
2017-09-11T18:08:45.790Z,17.13
2017-09-11T18:11:12.175Z,16.93
2017-09-11T18:13:38.680Z,21.87
2017-09-11T18:16:05.207Z,19.00
2017-09-11T18:18:31.633Z,17.53
2017-09-11T18:20:58.068Z,16.13
2017-09-11T18:23:24.490Z,24.90
2017-09-11T18:25:50.886Z,22.70
2017-09-11T18:28:17.372Z,26.23
2017-09-11T18:30:43.814Z,19.20
2017-09-11T18:33:10.344Z,19.27
2017-09-11T18:35:36.779Z,23.03
2017-09-11T18:38:03.214Z,23.77
2017-09-11T18:40:29.649Z,25.47
2017-09-11T18:42:56.085Z,15.50
2017-09-11T18:45:23.237Z,26.37
2017-09-11T18:47:49.679Z,26.20
2017-09-11T18:50:16.105Z,21.57
2017-09-11T18:52:42.494Z,23.70
2017-09-11T18:55:08.974Z,21.43
2017-09-11T18:57:35.410Z,16.33
2017-09-11T19:00:01.833Z,15.50
2017-09-11T19:02:28.248Z,28.43
2017-09-11T19:04:54.817Z,16.80
2017-09-11T19:07:21.254Z,17.23
2017-09-11T19:09:47.687Z,14.90
2017-09-11T19:12:14.125Z,20.83
2017-09-11T19:14:40.557Z,23.40
2017-09-11T19:17:06.993Z,27.13
2017-09-11T19:19:33.428Z,22.73
2017-09-11T19:21:59.880Z,21.23
2017-09-11T19:24:26.243Z,26.27
2017-09-11T19:26:52.731Z,23.70
2017-09-11T19:29:19.186Z,22.60
2017-09-11T19:31:45.601Z,27.87
2017-09-11T19:34:12.037Z,20.67
2017-09-11T19:36:38.471Z,19.00
2017-09-11T19:39:04.905Z,22.50
2017-09-11T19:41:31.391Z,23.27
2017-09-11T19:43:57.877Z,19.70
2017-09-11T19:46:24.312Z,19.20
2017-09-11T19:48:50.748Z,23.77
2017-09-11T19:51:17.181Z,26.73
2017-09-11T19:53:43.619Z,25.10
2017-09-11T19:56:10.784Z,21.53
2017-09-11T19:58:37.203Z,21.77
2017-09-11T20:01:03.638Z,19.23
2017-09-11T20:03:30.024Z,24.90
2017-09-11T20:05:56.508Z,22.30
2017-09-11T20:08:22.860Z,19.10
2017-09-11T20:10:49.275Z,31.70
2017-09-11T20:13:15.665Z,20.53
2017-09-11T20:15:42.146Z,19.33
2017-09-11T20:18:08.558Z,18.90
2017-09-11T20:20:34.903Z,22.97
2017-09-11T20:23:01.343Z,28.53
2017-09-11T20:25:27.784Z,18.83
2017-09-11T20:27:54.935Z,17.30
2017-09-11T20:30:21.370Z,16.93
2017-09-11T20:32:47.805Z,17.47
2017-09-11T20:35:14.195Z,19.03
2017-09-11T20:37:40.693Z,18.80
2017-09-11T20:40:07.110Z,22.80
2017-09-11T20:42:34.211Z,20.33
2017-09-11T20:45:00.680Z,18.03
2017-09-11T20:47:27.123Z,24.40
2017-09-11T20:49:53.668Z,16.87
2017-09-11T20:52:20.308Z,14.07
2017-09-11T20:54:46.691Z,26.00
2017-09-11T20:57:13.127Z,19.07
2017-09-11T20:59:39.619Z,13.47
2017-09-11T21:02:05.999Z,19.63
2017-09-11T21:04:32.473Z,19.90
2017-09-11T21:06:58.917Z,36.23
2017-09-11T21:09:25.333Z,17.73
2017-09-11T21:11:51.776Z,25.37
2017-09-11T21:14:18.135Z,25.83
2017-09-11T21:16:44.554Z,21.80
2017-09-11T21:19:10.908Z,22.37
2017-09-11T21:21:37.322Z,21.07
2017-09-11T21:24:03.659Z,26.03
2017-09-11T21:26:30.109Z,23.47
2017-09-11T21:28:56.487Z,28.23
2017-09-11T21:31:22.945Z,16.60
2017-09-11T21:33:49.394Z,26.83
2017-09-11T21:36:15.834Z,16.73
2017-09-11T21:38:42.215Z,25.70
2017-09-11T21:41:08.649Z,21.17
2017-09-11T21:43:35.030Z,17.07
2017-09-11T21:46:01.488Z,20.57
2017-09-11T21:48:27.851Z,19.73
2017-09-11T21:50:54.323Z,28.57
2017-09-11T21:53:20.790Z,20.23
2017-09-11T21:55:47.205Z,23.03
2017-09-11T21:58:14.357Z,27.17
2017-09-11T22:00:40.791Z,18.63
2017-09-11T22:03:07.227Z,26.40
2017-09-11T22:05:33.661Z,17.47
2017-09-11T22:08:00.097Z,33.60
2017-09-11T22:10:26.535Z,31.13
2017-09-11T22:12:52.968Z,25.97
2017-09-11T22:15:19.402Z,26.33
2017-09-11T22:17:45.837Z,21.13
2017-09-11T22:20:12.199Z,19.90
2017-09-11T22:22:38.602Z,17.70
2017-09-11T22:25:05.041Z,18.90
2017-09-11T22:27:31.475Z,24.97
2017-09-11T22:29:57.910Z,20.87
2017-09-11T22:32:24.345Z,22.40
2017-09-11T22:34:50.779Z,31.33
2017-09-11T22:37:17.216Z,20.40
2017-09-11T22:39:43.647Z,20.57
2017-09-11T22:42:10.039Z,20.43
2017-09-11T22:44:36.508Z,19.27
2017-09-11T22:47:02.950Z,20.57
2017-09-11T22:49:29.334Z,20.00
2017-09-11T22:51:55.791Z,18.77
2017-09-11T22:54:22.205Z,20.93
2017-09-11T22:56:48.590Z,22.33
2017-09-11T22:59:15.045Z,18.60
2017-09-11T23:01:41.563Z,24.77
2017-09-11T23:04:08.797Z,23.53
2017-09-11T23:06:35.224Z,19.40
2017-09-11T23:09:01.692Z,19.83
2017-09-11T23:11:28.127Z,23.73
2017-09-11T23:13:54.562Z,22.70
2017-09-11T23:16:20.998Z,20.83
2017-09-11T23:18:47.432Z,23.40
2017-09-11T23:21:13.869Z,17.97
2017-09-11T23:23:40.301Z,18.93
2017-09-11T23:26:06.737Z,20.17
2017-09-11T23:28:33.171Z,19.13
2017-09-11T23:30:59.606Z,19.13
2017-09-11T23:33:26.042Z,21.17
2017-09-11T23:35:52.476Z,25.40
2017-09-11T23:38:18.916Z,20.63
2017-09-11T23:40:45.449Z,22.77
2017-09-11T23:43:11.853Z,29.63
2017-09-11T23:45:38.319Z,27.70
2017-09-11T23:48:04.753Z,24.97
2017-09-11T23:50:31.188Z,26.33
2017-09-11T23:52:58.463Z,17.17
2017-09-11T23:55:24.979Z,26.70
2017-09-11T23:57:51.414Z,22.63
